sensor_id;sensor_type;location;lat;lon;timestamp;P1;durP1;ratioP1;P2;durP2;ratioP2
36653;SDS011;22650;49.350;20.898;2023-02-28T00:00:32;60.70;;;20.33;;
36653;SDS011;22650;49.350;20.898;2023-02-28T00:03:05;38.78;;;17.48;;
36653;SDS011;22650;49.350;20.898;2023-02-28T00:05:39;53.08;;;18.85;;
36653;SDS011;22650;49.350;20.898;2023-02-28T00:08:13;46.40;;;16.58;;
36653;SDS011;22650;49.350;20.898;2023-02-28T00:10:46;46.75;;;16.27;;
36653;SDS011;22650;49.350;20.898;2023-02-28T00:13:20;37.30;;;14.90;;
36653;SDS011;22650;49.350;20.898;2023-02-28T00:16:05;39.70;;;14.35;;
36653;SDS011;22650;49.350;20.898;2023-02-28T00:18:40;36.83;;;15.15;;
36653;SDS011;22650;49.350;20.898;2023-02-28T00:21:14;32.47;;;13.13;;
36653;SDS011;22650;49.350;20.898;2023-02-28T00:23:48;42.42;;;13.63;;
36653;SDS011;22650;49.350;20.898;2023-02-28T00:26:21;46.92;;;14.80;;
36653;SDS011;22650;49.350;20.898;2023-02-28T00:28:55;36.33;;;13.52;;
36653;SDS011;22650;49.350;20.898;2023-02-28T00:31:30;39.95;;;13.32;;
36653;SDS011;22650;49.350;20.898;2023-02-28T00:34:03;32.88;;;12.07;;
36653;SDS011;22650;49.350;20.898;2023-02-28T00:36:37;31.92;;;13.60;;
36653;SDS011;22650;49.350;20.898;2023-02-28T00:39:12;35.78;;;13.10;;
36653;SDS011;22650;49.350;20.898;2023-02-28T00:41:45;22.60;;;9.90;;
36653;SDS011;22650;49.350;20.898;2023-02-28T00:44:19;17.38;;;7.53;;
36653;SDS011;22650;49.350;20.898;2023-02-28T00:46:54;30.92;;;10.02;;
36653;SDS011;22650;49.350;20.898;2023-02-28T00:49:28;32.30;;;11.60;;
36653;SDS011;22650;49.350;20.898;2023-02-28T00:52:02;25.63;;;9.07;;
36653;SDS011;22650;49.350;20.898;2023-02-28T00:54:36;25.05;;;9.05;;
36653;SDS011;22650;49.350;20.898;2023-02-28T00:57:11;19.45;;;9.68;;
36653;SDS011;22650;49.350;20.898;2023-02-28T00:59:44;20.67;;;8.57;;
36653;SDS011;22650;49.350;20.898;2023-02-28T01:02:19;25.45;;;9.93;;
36653;SDS011;22650;49.350;20.898;2023-02-28T01:04:53;33.92;;;15.30;;
36653;SDS011;22650;49.350;20.898;2023-02-28T01:07:28;37.17;;;12.63;;
36653;SDS011;22650;49.350;20.898;2023-02-28T01:10:01;51.83;;;18.77;;
36653;SDS011;22650;49.350;20.898;2023-02-28T01:12:35;56.33;;;19.27;;
36653;SDS011;22650;49.350;20.898;2023-02-28T01:15:10;26.15;;;11.75;;
36653;SDS011;22650;49.350;20.898;2023-02-28T01:17:45;34.35;;;12.68;;
36653;SDS011;22650;49.350;20.898;2023-02-28T01:20:19;30.80;;;11.20;;
36653;SDS011;22650;49.350;20.898;2023-02-28T01:22:52;35.92;;;12.82;;
36653;SDS011;22650;49.350;20.898;2023-02-28T01:25:26;43.30;;;14.55;;
36653;SDS011;22650;49.350;20.898;2023-02-28T01:27:59;33.70;;;11.98;;
36653;SDS011;22650;49.350;20.898;2023-02-28T01:30:33;27.17;;;9.95;;
36653;SDS011;22650;49.350;20.898;2023-02-28T01:33:08;28.52;;;10.75;;
36653;SDS011;22650;49.350;20.898;2023-02-28T01:35:41;24.02;;;10.13;;
36653;SDS011;22650;49.350;20.898;2023-02-28T01:38:15;39.70;;;11.95;;
36653;SDS011;22650;49.350;20.898;2023-02-28T01:40:53;30.38;;;10.20;;
36653;SDS011;22650;49.350;20.898;2023-02-28T01:43:27;25.02;;;9.73;;
36653;SDS011;22650;49.350;20.898;2023-02-28T01:46:02;31.58;;;9.55;;
36653;SDS011;22650;49.350;20.898;2023-02-28T01:48:41;22.00;;;8.75;;
36653;SDS011;22650;49.350;20.898;2023-02-28T01:51:20;26.42;;;8.70;;
36653;SDS011;22650;49.350;20.898;2023-02-28T01:53:58;32.80;;;10.93;;
36653;SDS011;22650;49.350;20.898;2023-02-28T01:56:35;23.02;;;9.88;;
36653;SDS011;22650;49.350;20.898;2023-02-28T01:59:09;26.73;;;10.45;;
36653;SDS011;22650;49.350;20.898;2023-02-28T02:01:45;25.85;;;8.57;;
36653;SDS011;22650;49.350;20.898;2023-02-28T02:04:21;27.70;;;9.30;;
36653;SDS011;22650;49.350;20.898;2023-02-28T02:06:55;25.45;;;9.65;;
36653;SDS011;22650;49.350;20.898;2023-02-28T02:09:30;23.63;;;9.48;;
36653;SDS011;22650;49.350;20.898;2023-02-28T02:12:07;23.52;;;9.65;;
36653;SDS011;22650;49.350;20.898;2023-02-28T02:14:52;30.65;;;10.95;;
36653;SDS011;22650;49.350;20.898;2023-02-28T02:17:38;29.92;;;11.38;;
36653;SDS011;22650;49.350;20.898;2023-02-28T02:23:49;39.85;;;15.40;;
36653;SDS011;22650;49.350;20.898;2023-02-28T02:26:51;40.25;;;14.20;;
36653;SDS011;22650;49.350;20.898;2023-02-28T02:33:10;36.35;;;13.82;;
36653;SDS011;22650;49.350;20.898;2023-02-28T02:36:01;37.58;;;14.15;;
36653;SDS011;22650;49.350;20.898;2023-02-28T02:38:38;33.08;;;13.57;;
36653;SDS011;22650;49.350;20.898;2023-02-28T02:43:57;37.28;;;14.50;;
36653;SDS011;22650;49.350;20.898;2023-02-28T02:49:15;32.08;;;13.45;;
36653;SDS011;22650;49.350;20.898;2023-02-28T02:51:55;28.20;;;13.35;;
36653;SDS011;22650;49.350;20.898;2023-02-28T02:54:32;41.03;;;15.00;;
36653;SDS011;22650;49.350;20.898;2023-02-28T02:57:09;39.63;;;13.27;;
36653;SDS011;22650;49.350;20.898;2023-02-28T02:59:48;47.40;;;15.13;;
36653;SDS011;22650;49.350;20.898;2023-02-28T03:02:24;37.40;;;13.82;;
36653;SDS011;22650;49.350;20.898;2023-02-28T03:05:07;41.97;;;13.25;;
36653;SDS011;22650;49.350;20.898;2023-02-28T03:07:48;43.83;;;13.85;;
36653;SDS011;22650;49.350;20.898;2023-02-28T03:10:26;32.83;;;12.05;;
36653;SDS011;22650;49.350;20.898;2023-02-28T03:13:17;33.00;;;13.45;;
36653;SDS011;22650;49.350;20.898;2023-02-28T03:16:22;36.33;;;12.15;;
36653;SDS011;22650;49.350;20.898;2023-02-28T03:22:11;28.92;;;12.38;;
36653;SDS011;22650;49.350;20.898;2023-02-28T03:24:52;28.58;;;13.27;;
36653;SDS011;22650;49.350;20.898;2023-02-28T03:27:31;38.92;;;12.68;;
36653;SDS011;22650;49.350;20.898;2023-02-28T03:30:14;28.45;;;11.98;;
36653;SDS011;22650;49.350;20.898;2023-02-28T03:32:57;36.92;;;13.23;;
36653;SDS011;22650;49.350;20.898;2023-02-28T03:35:37;34.95;;;11.88;;
36653;SDS011;22650;49.350;20.898;2023-02-28T03:38:13;28.00;;;11.00;;
36653;SDS011;22650;49.350;20.898;2023-02-28T03:41:07;32.55;;;11.80;;
36653;SDS011;22650;49.350;20.898;2023-02-28T03:43:53;27.70;;;10.80;;
36653;SDS011;22650;49.350;20.898;2023-02-28T03:46:31;30.98;;;11.05;;
36653;SDS011;22650;49.350;20.898;2023-02-28T03:49:12;32.85;;;11.98;;
36653;SDS011;22650;49.350;20.898;2023-02-28T03:51:50;30.95;;;11.85;;
36653;SDS011;22650;49.350;20.898;2023-02-28T03:54:27;30.67;;;11.00;;
36653;SDS011;22650;49.350;20.898;2023-02-28T03:57:06;32.03;;;12.73;;
36653;SDS011;22650;49.350;20.898;2023-02-28T03:59:46;35.88;;;11.70;;
36653;SDS011;22650;49.350;20.898;2023-02-28T04:02:23;30.52;;;11.63;;
36653;SDS011;22650;49.350;20.898;2023-02-28T04:04:57;29.80;;;10.13;;
36653;SDS011;22650;49.350;20.898;2023-02-28T04:07:31;33.47;;;12.30;;
36653;SDS011;22650;49.350;20.898;2023-02-28T04:10:05;30.20;;;12.73;;
36653;SDS011;22650;49.350;20.898;2023-02-28T04:12:40;31.10;;;11.23;;
36653;SDS011;22650;49.350;20.898;2023-02-28T04:15:14;23.80;;;10.55;;
36653;SDS011;22650;49.350;20.898;2023-02-28T04:17:47;32.85;;;11.13;;
36653;SDS011;22650;49.350;20.898;2023-02-28T04:20:21;26.63;;;10.98;;
36653;SDS011;22650;49.350;20.898;2023-02-28T04:22:55;24.35;;;10.82;;
36653;SDS011;22650;49.350;20.898;2023-02-28T04:25:28;23.17;;;10.05;;
36653;SDS011;22650;49.350;20.898;2023-02-28T04:28:03;21.98;;;10.32;;
36653;SDS011;22650;49.350;20.898;2023-02-28T04:30:37;31.98;;;12.02;;
36653;SDS011;22650;49.350;20.898;2023-02-28T04:33:11;24.15;;;9.80;;
36653;SDS011;22650;49.350;20.898;2023-02-28T04:35:45;33.95;;;11.73;;
36653;SDS011;22650;49.350;20.898;2023-02-28T04:38:18;34.80;;;11.35;;
36653;SDS011;22650;49.350;20.898;2023-02-28T04:40:52;26.80;;;9.32;;
36653;SDS011;22650;49.350;20.898;2023-02-28T04:43:27;23.45;;;11.50;;
36653;SDS011;22650;49.350;20.898;2023-02-28T04:46:02;28.88;;;11.52;;
36653;SDS011;22650;49.350;20.898;2023-02-28T04:48:37;24.17;;;9.43;;
36653;SDS011;22650;49.350;20.898;2023-02-28T04:51:12;22.83;;;9.45;;
36653;SDS011;22650;49.350;20.898;2023-02-28T04:53:46;29.42;;;11.38;;
36653;SDS011;22650;49.350;20.898;2023-02-28T04:56:20;26.42;;;10.00;;
36653;SDS011;22650;49.350;20.898;2023-02-28T04:58:56;28.77;;;10.10;;
36653;SDS011;22650;49.350;20.898;2023-02-28T05:01:30;28.17;;;10.23;;
36653;SDS011;22650;49.350;20.898;2023-02-28T05:04:05;25.05;;;9.43;;
36653;SDS011;22650;49.350;20.898;2023-02-28T05:06:38;22.88;;;10.38;;
36653;SDS011;22650;49.350;20.898;2023-02-28T05:09:12;32.88;;;10.57;;
36653;SDS011;22650;49.350;20.898;2023-02-28T05:11:45;30.85;;;10.65;;
36653;SDS011;22650;49.350;20.898;2023-02-28T05:14:22;25.98;;;8.20;;
36653;SDS011;22650;49.350;20.898;2023-02-28T05:16:55;23.33;;;8.82;;
36653;SDS011;22650;49.350;20.898;2023-02-28T05:19:29;27.42;;;11.38;;
36653;SDS011;22650;49.350;20.898;2023-02-28T05:22:02;29.63;;;10.65;;
36653;SDS011;22650;49.350;20.898;2023-02-28T05:24:36;21.27;;;9.52;;
36653;SDS011;22650;49.350;20.898;2023-02-28T05:27:09;25.33;;;9.13;;
36653;SDS011;22650;49.350;20.898;2023-02-28T05:29:45;20.05;;;9.57;;
36653;SDS011;22650;49.350;20.898;2023-02-28T05:32:18;23.13;;;9.63;;
36653;SDS011;22650;49.350;20.898;2023-02-28T05:34:52;27.48;;;9.70;;
36653;SDS011;22650;49.350;20.898;2023-02-28T05:37:25;26.92;;;9.57;;
36653;SDS011;22650;49.350;20.898;2023-02-28T05:39:59;27.85;;;9.82;;
36653;SDS011;22650;49.350;20.898;2023-02-28T05:42:32;24.20;;;9.95;;
36653;SDS011;22650;49.350;20.898;2023-02-28T05:45:08;31.77;;;10.77;;
36653;SDS011;22650;49.350;20.898;2023-02-28T05:47:45;26.60;;;10.30;;
36653;SDS011;22650;49.350;20.898;2023-02-28T05:50:18;25.98;;;9.73;;
36653;SDS011;22650;49.350;20.898;2023-02-28T05:52:52;27.05;;;10.07;;
36653;SDS011;22650;49.350;20.898;2023-02-28T05:55:25;29.77;;;10.77;;
36653;SDS011;22650;49.350;20.898;2023-02-28T05:57:59;27.52;;;10.73;;
36653;SDS011;22650;49.350;20.898;2023-02-28T06:00:34;35.25;;;11.40;;
36653;SDS011;22650;49.350;20.898;2023-02-28T06:03:07;29.00;;;10.50;;
36653;SDS011;22650;49.350;20.898;2023-02-28T06:05:41;34.53;;;10.43;;
36653;SDS011;22650;49.350;20.898;2023-02-28T06:08:14;26.30;;;9.90;;
36653;SDS011;22650;49.350;20.898;2023-02-28T06:10:48;30.25;;;11.77;;
36653;SDS011;22650;49.350;20.898;2023-02-28T06:13:21;33.50;;;12.25;;
36653;SDS011;22650;49.350;20.898;2023-02-28T06:16:00;23.48;;;10.27;;
36653;SDS011;22650;49.350;20.898;2023-02-28T06:18:33;30.92;;;11.93;;
36653;SDS011;22650;49.350;20.898;2023-02-28T06:21:07;31.35;;;11.88;;
36653;SDS011;22650;49.350;20.898;2023-02-28T06:23:41;27.23;;;11.75;;
36653;SDS011;22650;49.350;20.898;2023-02-28T06:26:15;35.67;;;13.52;;
36653;SDS011;22650;49.350;20.898;2023-02-28T06:28:49;33.22;;;13.35;;
36653;SDS011;22650;49.350;20.898;2023-02-28T06:31:24;41.17;;;15.05;;
36653;SDS011;22650;49.350;20.898;2023-02-28T06:33:58;49.85;;;19.00;;
36653;SDS011;22650;49.350;20.898;2023-02-28T06:36:32;53.63;;;19.65;;
36653;SDS011;22650;49.350;20.898;2023-02-28T06:39:05;42.70;;;18.15;;
36653;SDS011;22650;49.350;20.898;2023-02-28T06:41:40;29.40;;;10.13;;
36653;SDS011;22650;49.350;20.898;2023-02-28T06:44:26;24.55;;;11.35;;
36653;SDS011;22650;49.350;20.898;2023-02-28T06:47:08;28.45;;;10.18;;
36653;SDS011;22650;49.350;20.898;2023-02-28T06:49:42;26.25;;;9.23;;
36653;SDS011;22650;49.350;20.898;2023-02-28T06:52:16;23.65;;;9.60;;
36653;SDS011;22650;49.350;20.898;2023-02-28T06:54:50;28.40;;;11.50;;
36653;SDS011;22650;49.350;20.898;2023-02-28T06:57:32;28.90;;;10.63;;
36653;SDS011;22650;49.350;20.898;2023-02-28T07:00:07;21.42;;;9.98;;
36653;SDS011;22650;49.350;20.898;2023-02-28T07:02:43;19.45;;;7.50;;
36653;SDS011;22650;49.350;20.898;2023-02-28T07:05:17;22.88;;;8.70;;
36653;SDS011;22650;49.350;20.898;2023-02-28T07:07:50;16.70;;;8.27;;
36653;SDS011;22650;49.350;20.898;2023-02-28T07:10:24;22.45;;;8.15;;
36653;SDS011;22650;49.350;20.898;2023-02-28T07:12:57;21.05;;;8.00;;
36653;SDS011;22650;49.350;20.898;2023-02-28T07:15:31;21.42;;;9.40;;
36653;SDS011;22650;49.350;20.898;2023-02-28T07:18:06;26.05;;;9.13;;
36653;SDS011;22650;49.350;20.898;2023-02-28T07:20:40;24.08;;;9.77;;
36653;SDS011;22650;49.350;20.898;2023-02-28T07:23:14;18.08;;;8.63;;
36653;SDS011;22650;49.350;20.898;2023-02-28T07:25:47;30.05;;;10.30;;
36653;SDS011;22650;49.350;20.898;2023-02-28T07:28:22;25.67;;;10.27;;
36653;SDS011;22650;49.350;20.898;2023-02-28T07:30:56;27.15;;;9.98;;
36653;SDS011;22650;49.350;20.898;2023-02-28T07:33:31;33.88;;;10.13;;
36653;SDS011;22650;49.350;20.898;2023-02-28T07:36:06;13.43;;;6.68;;
36653;SDS011;22650;49.350;20.898;2023-02-28T07:38:45;21.55;;;8.80;;
36653;SDS011;22650;49.350;20.898;2023-02-28T07:41:21;15.00;;;5.82;;
36653;SDS011;22650;49.350;20.898;2023-02-28T07:43:59;19.85;;;8.20;;
36653;SDS011;22650;49.350;20.898;2023-02-28T07:46:34;11.70;;;4.05;;
36653;SDS011;22650;49.350;20.898;2023-02-28T07:49:10;13.20;;;5.25;;
36653;SDS011;22650;49.350;20.898;2023-02-28T07:51:43;6.53;;;3.20;;
36653;SDS011;22650;49.350;20.898;2023-02-28T07:54:17;9.45;;;3.28;;
36653;SDS011;22650;49.350;20.898;2023-02-28T07:56:50;6.72;;;3.35;;
36653;SDS011;22650;49.350;20.898;2023-02-28T07:59:24;7.53;;;3.05;;
36653;SDS011;22650;49.350;20.898;2023-02-28T08:01:57;4.90;;;3.00;;
36653;SDS011;22650;49.350;20.898;2023-02-28T08:04:33;9.00;;;2.83;;
36653;SDS011;22650;49.350;20.898;2023-02-28T08:07:07;6.18;;;3.55;;
36653;SDS011;22650;49.350;20.898;2023-02-28T08:09:41;8.65;;;2.90;;
36653;SDS011;22650;49.350;20.898;2023-02-28T08:12:15;14.40;;;3.55;;
36653;SDS011;22650;49.350;20.898;2023-02-28T08:14:49;6.93;;;3.22;;
36653;SDS011;22650;49.350;20.898;2023-02-28T08:17:22;6.38;;;3.00;;
36653;SDS011;22650;49.350;20.898;2023-02-28T08:19:57;9.85;;;4.38;;
36653;SDS011;22650;49.350;20.898;2023-02-28T08:22:30;8.85;;;3.10;;
36653;SDS011;22650;49.350;20.898;2023-02-28T08:25:04;8.00;;;4.28;;
36653;SDS011;22650;49.350;20.898;2023-02-28T08:27:39;9.88;;;3.63;;
36653;SDS011;22650;49.350;20.898;2023-02-28T08:30:13;8.82;;;3.17;;
36653;SDS011;22650;49.350;20.898;2023-02-28T08:32:47;5.95;;;3.20;;
36653;SDS011;22650;49.350;20.898;2023-02-28T08:35:22;8.68;;;3.50;;
36653;SDS011;22650;49.350;20.898;2023-02-28T08:37:56;9.00;;;3.80;;
36653;SDS011;22650;49.350;20.898;2023-02-28T08:40:30;7.20;;;3.30;;
36653;SDS011;22650;49.350;20.898;2023-02-28T08:43:04;4.85;;;3.15;;
36653;SDS011;22650;49.350;20.898;2023-02-28T08:45:37;4.50;;;2.90;;
36653;SDS011;22650;49.350;20.898;2023-02-28T08:48:11;9.23;;;3.83;;
36653;SDS011;22650;49.350;20.898;2023-02-28T08:50:53;9.80;;;3.30;;
36653;SDS011;22650;49.350;20.898;2023-02-28T08:56:12;8.15;;;2.83;;
36653;SDS011;22650;49.350;20.898;2023-02-28T08:58:48;6.22;;;2.70;;
36653;SDS011;22650;49.350;20.898;2023-02-28T09:01:23;7.95;;;3.28;;
36653;SDS011;22650;49.350;20.898;2023-02-28T09:04:00;5.75;;;3.22;;
36653;SDS011;22650;49.350;20.898;2023-02-28T09:06:35;7.57;;;2.97;;
36653;SDS011;22650;49.350;20.898;2023-02-28T09:09:08;5.25;;;2.80;;
36653;SDS011;22650;49.350;20.898;2023-02-28T09:11:42;6.30;;;2.95;;
36653;SDS011;22650;49.350;20.898;2023-02-28T09:14:16;7.13;;;2.58;;
36653;SDS011;22650;49.350;20.898;2023-02-28T09:16:50;11.35;;;4.18;;
36653;SDS011;22650;49.350;20.898;2023-02-28T09:19:23;8.73;;;3.33;;
36653;SDS011;22650;49.350;20.898;2023-02-28T09:21:58;5.38;;;2.78;;
36653;SDS011;22650;49.350;20.898;2023-02-28T09:24:32;8.60;;;3.05;;
36653;SDS011;22650;49.350;20.898;2023-02-28T09:27:05;7.72;;;3.00;;
36653;SDS011;22650;49.350;20.898;2023-02-28T09:29:39;6.53;;;3.03;;
36653;SDS011;22650;49.350;20.898;2023-02-28T09:32:13;6.90;;;2.75;;
36653;SDS011;22650;49.350;20.898;2023-02-28T09:34:49;5.05;;;2.75;;
36653;SDS011;22650;49.350;20.898;2023-02-28T09:37:24;7.10;;;2.72;;
36653;SDS011;22650;49.350;20.898;2023-02-28T09:40:02;5.03;;;2.70;;
36653;SDS011;22650;49.350;20.898;2023-02-28T09:42:36;6.80;;;3.03;;
36653;SDS011;22650;49.350;20.898;2023-02-28T09:45:13;9.50;;;3.63;;
36653;SDS011;22650;49.350;20.898;2023-02-28T09:47:55;7.95;;;3.70;;
36653;SDS011;22650;49.350;20.898;2023-02-28T09:50:33;6.18;;;3.38;;
36653;SDS011;22650;49.350;20.898;2023-02-28T09:53:13;6.70;;;3.47;;
36653;SDS011;22650;49.350;20.898;2023-02-28T09:55:53;7.70;;;3.08;;
36653;SDS011;22650;49.350;20.898;2023-02-28T09:58:32;7.57;;;3.08;;
36653;SDS011;22650;49.350;20.898;2023-02-28T10:01:19;4.70;;;2.42;;
36653;SDS011;22650;49.350;20.898;2023-02-28T10:03:58;7.38;;;2.90;;
36653;SDS011;22650;49.350;20.898;2023-02-28T10:06:38;6.50;;;2.75;;
36653;SDS011;22650;49.350;20.898;2023-02-28T10:09:19;6.30;;;3.03;;
36653;SDS011;22650;49.350;20.898;2023-02-28T10:12:03;6.18;;;2.95;;
36653;SDS011;22650;49.350;20.898;2023-02-28T10:14:41;5.75;;;3.17;;
36653;SDS011;22650;49.350;20.898;2023-02-28T10:17:19;9.45;;;3.80;;
36653;SDS011;22650;49.350;20.898;2023-02-28T10:19:58;10.45;;;4.68;;
36653;SDS011;22650;49.350;20.898;2023-02-28T10:22:41;9.40;;;3.63;;
36653;SDS011;22650;49.350;20.898;2023-02-28T10:25:23;6.57;;;3.28;;
36653;SDS011;22650;49.350;20.898;2023-02-28T10:28:01;8.77;;;4.75;;
36653;SDS011;22650;49.350;20.898;2023-02-28T10:30:42;7.20;;;2.95;;
36653;SDS011;22650;49.350;20.898;2023-02-28T10:33:19;6.05;;;2.97;;
36653;SDS011;22650;49.350;20.898;2023-02-28T10:35:56;6.85;;;3.00;;
36653;SDS011;22650;49.350;20.898;2023-02-28T10:38:32;6.85;;;2.80;;
36653;SDS011;22650;49.350;20.898;2023-02-28T10:41:09;6.85;;;2.60;;
36653;SDS011;22650;49.350;20.898;2023-02-28T10:43:44;7.57;;;3.65;;
36653;SDS011;22650;49.350;20.898;2023-02-28T10:46:18;5.20;;;3.05;;
36653;SDS011;22650;49.350;20.898;2023-02-28T10:49:00;4.65;;;2.90;;
36653;SDS011;22650;49.350;20.898;2023-02-28T10:51:36;5.43;;;2.78;;
36653;SDS011;22650;49.350;20.898;2023-02-28T10:54:18;5.57;;;3.05;;
36653;SDS011;22650;49.350;20.898;2023-02-28T10:57:18;5.57;;;2.85;;
36653;SDS011;22650;49.350;20.898;2023-02-28T11:00:07;7.75;;;3.38;;
36653;SDS011;22650;49.350;20.898;2023-02-28T11:02:48;6.82;;;2.90;;
36653;SDS011;22650;49.350;20.898;2023-02-28T11:05:25;5.78;;;3.00;;
36653;SDS011;22650;49.350;20.898;2023-02-28T11:08:03;6.75;;;3.75;;
36653;SDS011;22650;49.350;20.898;2023-02-28T11:10:44;4.70;;;2.53;;
36653;SDS011;22650;49.350;20.898;2023-02-28T11:13:21;5.72;;;2.83;;
36653;SDS011;22650;49.350;20.898;2023-02-28T11:16:00;6.50;;;2.95;;
36653;SDS011;22650;49.350;20.898;2023-02-28T11:18:38;3.88;;;2.05;;
36653;SDS011;22650;49.350;20.898;2023-02-28T11:21:19;4.93;;;2.45;;
36653;SDS011;22650;49.350;20.898;2023-02-28T11:23:57;4.40;;;2.47;;
36653;SDS011;22650;49.350;20.898;2023-02-28T11:26:35;4.55;;;2.40;;
36653;SDS011;22650;49.350;20.898;2023-02-28T11:29:16;8.57;;;3.05;;
36653;SDS011;22650;49.350;20.898;2023-02-28T11:32:00;4.53;;;2.40;;
36653;SDS011;22650;49.350;20.898;2023-02-28T11:34:36;8.18;;;2.67;;
36653;SDS011;22650;49.350;20.898;2023-02-28T11:37:12;4.65;;;2.63;;
36653;SDS011;22650;49.350;20.898;2023-02-28T11:39:47;5.47;;;2.67;;
36653;SDS011;22650;49.350;20.898;2023-02-28T11:42:28;5.03;;;2.40;;
36653;SDS011;22650;49.350;20.898;2023-02-28T11:45:28;5.78;;;3.67;;
36653;SDS011;22650;49.350;20.898;2023-02-28T11:48:16;7.55;;;4.18;;
36653;SDS011;22650;49.350;20.898;2023-02-28T11:50:57;7.85;;;3.03;;
36653;SDS011;22650;49.350;20.898;2023-02-28T11:53:43;7.30;;;3.08;;
36653;SDS011;22650;49.350;20.898;2023-02-28T11:56:31;4.22;;;2.90;;
36653;SDS011;22650;49.350;20.898;2023-02-28T11:59:13;5.47;;;3.45;;
36653;SDS011;22650;49.350;20.898;2023-02-28T12:02:05;19.33;;;9.65;;
36653;SDS011;22650;49.350;20.898;2023-02-28T12:05:08;7.03;;;3.88;;
36653;SDS011;22650;49.350;20.898;2023-02-28T12:07:55;6.35;;;3.50;;
36653;SDS011;22650;49.350;20.898;2023-02-28T12:10:37;9.80;;;3.63;;
36653;SDS011;22650;49.350;20.898;2023-02-28T12:13:18;6.47;;;3.13;;
36653;SDS011;22650;49.350;20.898;2023-02-28T12:16:08;6.18;;;3.38;;
36653;SDS011;22650;49.350;20.898;2023-02-28T12:19:10;4.93;;;2.50;;
36653;SDS011;22650;49.350;20.898;2023-02-28T12:21:59;10.30;;;4.20;;
36653;SDS011;22650;49.350;20.898;2023-02-28T12:24:58;4.95;;;2.75;;
36653;SDS011;22650;49.350;20.898;2023-02-28T12:27:50;7.20;;;3.10;;
36653;SDS011;22650;49.350;20.898;2023-02-28T12:30:26;5.82;;;3.10;;
36653;SDS011;22650;49.350;20.898;2023-02-28T12:33:03;6.43;;;3.55;;
36653;SDS011;22650;49.350;20.898;2023-02-28T12:35:41;7.55;;;3.25;;
36653;SDS011;22650;49.350;20.898;2023-02-28T12:38:19;7.53;;;3.63;;
36653;SDS011;22650;49.350;20.898;2023-02-28T12:40:56;8.93;;;3.95;;
36653;SDS011;22650;49.350;20.898;2023-02-28T12:43:34;5.78;;;2.97;;
36653;SDS011;22650;49.350;20.898;2023-02-28T12:46:12;5.90;;;3.13;;
36653;SDS011;22650;49.350;20.898;2023-02-28T12:48:50;6.22;;;3.50;;
36653;SDS011;22650;49.350;20.898;2023-02-28T12:51:29;7.57;;;3.10;;
36653;SDS011;22650;49.350;20.898;2023-02-28T12:54:06;8.25;;;3.47;;
36653;SDS011;22650;49.350;20.898;2023-02-28T12:56:50;5.43;;;2.67;;
36653;SDS011;22650;49.350;20.898;2023-02-28T12:59:32;8.65;;;3.35;;
36653;SDS011;22650;49.350;20.898;2023-02-28T13:05:29;11.05;;;3.50;;
36653;SDS011;22650;49.350;20.898;2023-02-28T13:08:27;7.97;;;4.40;;
36653;SDS011;22650;49.350;20.898;2023-02-28T13:11:25;7.35;;;4.07;;
36653;SDS011;22650;49.350;20.898;2023-02-28T13:14:03;6.13;;;3.72;;
36653;SDS011;22650;49.350;20.898;2023-02-28T13:16:50;5.78;;;3.45;;
36653;SDS011;22650;49.350;20.898;2023-02-28T13:19:29;6.97;;;3.58;;
36653;SDS011;22650;49.350;20.898;2023-02-28T13:22:05;15.50;;;6.82;;
36653;SDS011;22650;49.350;20.898;2023-02-28T13:24:50;9.90;;;4.63;;
36653;SDS011;22650;49.350;20.898;2023-02-28T13:27:31;12.25;;;5.13;;
36653;SDS011;22650;49.350;20.898;2023-02-28T13:33:24;7.40;;;3.58;;
36653;SDS011;22650;49.350;20.898;2023-02-28T13:36:01;5.65;;;3.63;;
36653;SDS011;22650;49.350;20.898;2023-02-28T13:38:41;6.53;;;3.95;;
36653;SDS011;22650;49.350;20.898;2023-02-28T13:44:18;6.53;;;3.80;;
36653;SDS011;22650;49.350;20.898;2023-02-28T13:47:19;6.93;;;4.30;;
36653;SDS011;22650;49.350;20.898;2023-02-28T13:50:21;10.38;;;4.22;;
36653;SDS011;22650;49.350;20.898;2023-02-28T13:56:08;6.13;;;3.20;;
36653;SDS011;22650;49.350;20.898;2023-02-28T13:58:57;6.95;;;3.28;;
36653;SDS011;22650;49.350;20.898;2023-02-28T14:01:43;7.25;;;4.28;;
36653;SDS011;22650;49.350;20.898;2023-02-28T14:07:28;6.28;;;3.38;;
36653;SDS011;22650;49.350;20.898;2023-02-28T14:10:07;13.50;;;4.35;;
36653;SDS011;22650;49.350;20.898;2023-02-28T14:12:53;9.02;;;4.28;;
36653;SDS011;22650;49.350;20.898;2023-02-28T14:15:41;6.47;;;4.55;;
36653;SDS011;22650;49.350;20.898;2023-02-28T14:18:23;8.88;;;4.07;;
36653;SDS011;22650;49.350;20.898;2023-02-28T14:21:01;10.45;;;4.07;;
36653;SDS011;22650;49.350;20.898;2023-02-28T14:23:55;7.50;;;4.20;;
36653;SDS011;22650;49.350;20.898;2023-02-28T14:26:56;8.32;;;4.35;;
36653;SDS011;22650;49.350;20.898;2023-02-28T14:30:07;10.07;;;4.20;;
36653;SDS011;22650;49.350;20.898;2023-02-28T14:33:22;10.45;;;4.80;;
36653;SDS011;22650;49.350;20.898;2023-02-28T14:38:42;9.07;;;4.73;;
36653;SDS011;22650;49.350;20.898;2023-02-28T14:41:21;12.32;;;5.20;;
36653;SDS011;22650;49.350;20.898;2023-02-28T14:43:56;10.02;;;4.30;;
36653;SDS011;22650;49.350;20.898;2023-02-28T14:46:34;11.95;;;5.10;;
36653;SDS011;22650;49.350;20.898;2023-02-28T14:49:15;10.38;;;6.05;;
36653;SDS011;22650;49.350;20.898;2023-02-28T14:52:01;10.27;;;4.35;;
36653;SDS011;22650;49.350;20.898;2023-02-28T14:54:38;8.70;;;4.32;;
36653;SDS011;22650;49.350;20.898;2023-02-28T14:57:23;10.82;;;5.45;;
36653;SDS011;22650;49.350;20.898;2023-02-28T14:59:59;12.23;;;5.55;;
36653;SDS011;22650;49.350;20.898;2023-02-28T15:02:35;17.60;;;7.18;;
36653;SDS011;22650;49.350;20.898;2023-02-28T15:05:19;14.50;;;5.80;;
36653;SDS011;22650;49.350;20.898;2023-02-28T15:08:06;9.85;;;5.75;;
36653;SDS011;22650;49.350;20.898;2023-02-28T15:10:45;12.90;;;6.22;;
36653;SDS011;22650;49.350;20.898;2023-02-28T15:13:25;10.30;;;5.43;;
36653;SDS011;22650;49.350;20.898;2023-02-28T15:16:05;10.00;;;5.45;;
36653;SDS011;22650;49.350;20.898;2023-02-28T15:18:44;14.75;;;5.60;;
36653;SDS011;22650;49.350;20.898;2023-02-28T15:21:23;11.27;;;6.10;;
36653;SDS011;22650;49.350;20.898;2023-02-28T15:24:00;13.88;;;5.65;;
36653;SDS011;22650;49.350;20.898;2023-02-28T15:26:39;9.73;;;5.35;;
36653;SDS011;22650;49.350;20.898;2023-02-28T15:29:15;15.02;;;5.93;;
36653;SDS011;22650;49.350;20.898;2023-02-28T15:31:55;14.20;;;6.97;;
36653;SDS011;22650;49.350;20.898;2023-02-28T15:34:33;15.75;;;6.40;;
36653;SDS011;22650;49.350;20.898;2023-02-28T15:37:29;12.45;;;6.72;;
36653;SDS011;22650;49.350;20.898;2023-02-28T15:40:12;27.90;;;6.45;;
36653;SDS011;22650;49.350;20.898;2023-02-28T15:42:58;11.25;;;5.63;;
36653;SDS011;22650;49.350;20.898;2023-02-28T15:45:37;13.32;;;6.43;;
36653;SDS011;22650;49.350;20.898;2023-02-28T15:48:16;17.40;;;8.13;;
36653;SDS011;22650;49.350;20.898;2023-02-28T15:50:51;13.98;;;7.38;;
36653;SDS011;22650;49.350;20.898;2023-02-28T15:53:30;15.80;;;6.65;;
36653;SDS011;22650;49.350;20.898;2023-02-28T15:56:06;13.20;;;6.72;;
36653;SDS011;22650;49.350;20.898;2023-02-28T15:58:50;15.13;;;6.75;;
36653;SDS011;22650;49.350;20.898;2023-02-28T16:01:27;13.65;;;6.68;;